createdAt,value
2022-10-07T00:00:25.327Z,2.65
2022-10-07T00:01:49.098Z,2.97
2022-10-07T00:03:11.515Z,2.78
2022-10-07T00:04:37.007Z,2.97
2022-10-07T00:06:08.173Z,2.38
2022-10-07T00:07:31.559Z,3.17
2022-10-07T00:08:54.570Z,3.35
2022-10-07T00:10:18.130Z,3.70
2022-10-07T00:11:40.493Z,3.33
2022-10-07T00:13:05.187Z,2.45
2022-10-07T00:14:28.564Z,2.78
2022-10-07T00:15:50.921Z,3.22
2022-10-07T00:17:14.269Z,2.70
2022-10-07T00:18:37.846Z,2.60
2022-10-07T00:20:01.546Z,3.08
2022-10-07T00:21:26.149Z,2.92
2022-10-07T00:22:48.619Z,2.60
2022-10-07T00:24:13.283Z,3.13
2022-10-07T00:25:36.825Z,2.88
2022-10-07T00:27:00.157Z,3.30
2022-10-07T00:28:25.457Z,2.90
2022-10-07T00:29:49.000Z,3.00
2022-10-07T00:31:16.056Z,2.88
2022-10-07T00:32:38.555Z,2.85
2022-10-07T00:34:02.194Z,2.47
2022-10-07T00:35:24.532Z,2.97
2022-10-07T00:36:50.321Z,3.28
2022-10-07T00:38:12.725Z,2.67
2022-10-07T00:39:36.144Z,3.03
2022-10-07T00:40:58.523Z,2.60
2022-10-07T00:42:21.892Z,2.47
2022-10-07T00:43:45.640Z,2.53
2022-10-07T00:45:15.068Z,2.70
2022-10-07T00:46:40.043Z,3.38
2022-10-07T00:48:02.425Z,2.78
2022-10-07T00:49:26.202Z,3.17
2022-10-07T00:50:51.743Z,2.85
2022-10-07T00:52:16.314Z,2.60
2022-10-07T00:53:42.830Z,2.88
2022-10-07T00:55:07.944Z,2.72
2022-10-07T00:56:31.933Z,2.65
2022-10-07T00:57:59.110Z,2.65
2022-10-07T00:59:22.933Z,2.50
2022-10-07T01:00:46.327Z,2.65
2022-10-07T01:02:09.066Z,2.63
2022-10-07T01:03:34.042Z,2.72
2022-10-07T01:04:58.897Z,2.83
2022-10-07T01:06:22.607Z,2.80
2022-10-07T01:07:47.525Z,2.60
2022-10-07T01:09:11.756Z,2.75
2022-10-07T01:10:39.589Z,2.65
2022-10-07T01:12:07.948Z,2.85
2022-10-07T01:13:35.567Z,2.78
2022-10-07T01:15:05.473Z,2.97
2022-10-07T01:16:33.634Z,2.28
2022-10-07T01:18:06.150Z,2.50
2022-10-07T01:19:54.998Z,2.67
2022-10-07T01:21:24.075Z,2.25
2022-10-07T01:22:53.918Z,2.80
2022-10-07T01:24:25.896Z,2.40
2022-10-07T01:26:27.117Z,2.63
2022-10-07T01:27:54.309Z,2.33
2022-10-07T01:29:19.726Z,2.97
2022-10-07T01:30:47.500Z,2.67
2022-10-07T01:32:12.868Z,2.65
2022-10-07T01:33:36.999Z,2.30
2022-10-07T01:34:59.842Z,2.50
2022-10-07T01:36:25.785Z,2.30
2022-10-07T01:37:53.923Z,2.42
2022-10-07T01:39:18.953Z,2.70
2022-10-07T01:40:45.338Z,2.35
2022-10-07T01:42:10.440Z,2.60
2022-10-07T01:43:34.548Z,2.80
2022-10-07T01:44:59.449Z,2.70
2022-10-07T01:46:24.269Z,2.60
2022-10-07T01:47:47.807Z,2.83
2022-10-07T01:49:10.188Z,2.75
2022-10-07T01:50:33.966Z,2.65
2022-10-07T01:52:28.266Z,2.80
2022-10-07T01:53:58.576Z,2.50
2022-10-07T01:55:38.872Z,2.75
2022-10-07T01:57:18.244Z,2.55
2022-10-07T01:59:08.408Z,3.38
2022-10-07T02:00:31.208Z,2.72
2022-10-07T02:01:58.175Z,2.15
2022-10-07T02:03:32.772Z,2.90
2022-10-07T02:05:02.753Z,2.70
2022-10-07T02:06:33.700Z,3.20
2022-10-07T02:08:07.571Z,3.22
2022-10-07T02:09:34.673Z,2.60
2022-10-07T02:11:09.102Z,2.75
2022-10-07T02:12:37.530Z,2.90
2022-10-07T02:14:04.618Z,2.92
2022-10-07T02:15:31.902Z,2.90
2022-10-07T02:16:58.123Z,2.95
2022-10-07T02:18:21.176Z,2.90
2022-10-07T02:19:47.830Z,2.80
2022-10-07T02:21:10.756Z,2.58
2022-10-07T02:22:34.998Z,2.53
2022-10-07T02:23:58.515Z,3.00
2022-10-07T02:25:23.425Z,2.97
2022-10-07T02:26:46.347Z,2.88
2022-10-07T02:28:12.859Z,2.45
2022-10-07T02:29:37.313Z,2.50
2022-10-07T02:31:05.257Z,2.67
2022-10-07T02:32:28.009Z,3.08
2022-10-07T02:33:53.992Z,2.97
2022-10-07T02:35:23.205Z,3.40
2022-10-07T02:36:48.190Z,2.40
2022-10-07T02:38:14.491Z,2.78
2022-10-07T02:39:37.930Z,2.67
2022-10-07T02:41:07.056Z,2.75
2022-10-07T02:42:36.746Z,3.67
2022-10-07T02:44:09.559Z,3.35
2022-10-07T02:45:38.089Z,2.95
2022-10-07T02:47:04.776Z,2.38
2022-10-07T02:48:31.830Z,3.25
2022-10-07T02:49:54.621Z,3.15
2022-10-07T02:51:21.633Z,2.95
2022-10-07T02:52:44.849Z,2.78
2022-10-07T02:54:08.250Z,3.35
2022-10-07T02:55:32.804Z,3.08
2022-10-07T02:56:57.367Z,2.80
2022-10-07T02:58:21.563Z,2.70
2022-10-07T02:59:47.884Z,3.05
2022-10-07T03:01:12.751Z,2.67
2022-10-07T03:02:40.707Z,3.22
2022-10-07T03:04:03.132Z,2.63
2022-10-07T03:05:26.866Z,2.85
2022-10-07T03:06:49.632Z,3.17
2022-10-07T03:08:13.533Z,3.08
2022-10-07T03:09:35.959Z,2.90
2022-10-07T03:10:59.377Z,3.13
2022-10-07T03:12:22.109Z,3.47
2022-10-07T03:13:45.789Z,2.45
2022-10-07T03:15:11.029Z,3.38
2022-10-07T03:16:34.748Z,3.35
2022-10-07T03:17:58.104Z,2.97
2022-10-07T03:19:20.445Z,2.83
2022-10-07T03:20:43.825Z,2.80
2022-10-07T03:22:08.508Z,3.08
2022-10-07T03:23:30.995Z,2.92
2022-10-07T03:24:54.608Z,2.90
2022-10-07T03:26:17.972Z,3.00
2022-10-07T03:27:42.865Z,3.58
2022-10-07T03:29:05.792Z,3.38
2022-10-07T03:30:30.491Z,3.03
2022-10-07T03:31:54.632Z,3.53
2022-10-07T03:33:18.855Z,3.17
2022-10-07T03:34:42.333Z,2.83
2022-10-07T03:36:05.725Z,3.83
2022-10-07T03:37:32.328Z,3.42
2022-10-07T03:38:55.756Z,3.30
2022-10-07T03:40:18.765Z,3.33
2022-10-07T03:41:42.167Z,3.75
2022-10-07T03:43:05.029Z,3.30
2022-10-07T03:44:30.815Z,3.50
2022-10-07T03:45:55.937Z,3.13
2022-10-07T03:47:21.270Z,2.95
2022-10-07T03:48:44.750Z,3.15
2022-10-07T03:50:09.601Z,3.13
2022-10-07T03:51:33.399Z,2.63
2022-10-07T03:52:56.294Z,3.28
2022-10-07T03:54:19.773Z,3.15
2022-10-07T03:55:42.149Z,3.25
2022-10-07T03:57:26.296Z,3.10
2022-10-07T03:58:48.638Z,3.50
2022-10-07T04:00:13.274Z,3.47
2022-10-07T04:01:38.161Z,3.50
2022-10-07T04:03:00.555Z,3.92
2022-10-07T04:04:28.060Z,3.22
2022-10-07T04:05:58.145Z,3.28
2022-10-07T04:07:22.077Z,2.83
2022-10-07T04:08:45.690Z,3.45
2022-10-07T04:10:09.258Z,3.53
2022-10-07T04:11:32.798Z,3.35
2022-10-07T04:12:56.259Z,3.65
2022-10-07T04:14:19.582Z,2.92
2022-10-07T04:15:42.941Z,3.60
2022-10-07T04:17:07.621Z,4.00
2022-10-07T04:18:30.003Z,3.50
2022-10-07T04:19:53.315Z,3.05
2022-10-07T04:21:16.885Z,3.88
2022-10-07T04:22:39.352Z,4.68
2022-10-07T04:24:02.801Z,4.00
2022-10-07T04:25:33.874Z,3.22
2022-10-07T04:26:57.217Z,3.65
2022-10-07T04:28:20.817Z,3.08
2022-10-07T04:29:44.157Z,3.35
2022-10-07T04:31:08.879Z,3.20
2022-10-07T04:32:34.303Z,3.28
2022-10-07T04:33:57.628Z,3.92
2022-10-07T04:35:22.292Z,3.65
2022-10-07T04:36:45.633Z,3.38
2022-10-07T04:38:11.511Z,3.08
2022-10-07T04:39:59.147Z,3.00
2022-10-07T04:41:18.355Z,3.00
2022-10-07T04:42:59.196Z,3.78
2022-10-07T04:44:22.604Z,2.90
2022-10-07T04:45:45.979Z,3.80
2022-10-07T04:47:09.365Z,4.03
2022-10-07T04:48:34.680Z,3.80
2022-10-07T04:49:57.022Z,3.55
2022-10-07T04:51:22.164Z,3.70
2022-10-07T04:52:44.796Z,3.65
2022-10-07T04:54:08.386Z,3.65
2022-10-07T04:55:35.213Z,3.80
2022-10-07T04:56:58.539Z,3.72
2022-10-07T04:58:21.265Z,3.50
2022-10-07T04:59:44.604Z,3.58
2022-10-07T05:01:10.738Z,3.28
2022-10-07T05:02:33.277Z,3.67
2022-10-07T05:03:58.460Z,3.50
2022-10-07T05:05:21.026Z,4.00
2022-10-07T05:06:44.399Z,3.75
2022-10-07T05:08:07.436Z,3.55
2022-10-07T05:09:30.823Z,3.85
2022-10-07T05:10:57.546Z,3.80
2022-10-07T05:12:20.901Z,3.45
2022-10-07T05:13:44.258Z,4.05
2022-10-07T05:15:07.915Z,4.00
2022-10-07T05:16:31.367Z,3.42
2022-10-07T05:17:55.883Z,4.45
2022-10-07T05:19:20.968Z,4.55
2022-10-07T05:20:46.345Z,3.65
2022-10-07T05:22:10.462Z,3.80
2022-10-07T05:23:35.770Z,3.53
2022-10-07T05:24:58.707Z,4.22
2022-10-07T05:26:22.139Z,4.45
2022-10-07T05:27:45.690Z,4.35
2022-10-07T05:29:09.272Z,4.47
2022-10-07T05:30:32.356Z,4.22
2022-10-07T05:31:55.809Z,4.00
2022-10-07T05:33:19.542Z,4.32
2022-10-07T05:34:44.909Z,3.63
2022-10-07T05:36:10.006Z,3.83
2022-10-07T05:37:33.950Z,3.00
2022-10-07T05:38:58.281Z,4.28
2022-10-07T05:40:21.658Z,3.90
2022-10-07T05:41:45.996Z,5.00
2022-10-07T05:43:11.687Z,3.88
2022-10-07T05:44:34.035Z,3.60
2022-10-07T05:46:04.356Z,4.20
2022-10-07T05:47:27.746Z,3.63
2022-10-07T05:48:51.468Z,4.28
2022-10-07T05:50:16.417Z,3.60
2022-10-07T05:51:39.862Z,3.42
2022-10-07T05:53:03.202Z,3.28
2022-10-07T05:54:25.697Z,2.92
2022-10-07T05:55:49.265Z,3.53
2022-10-07T05:57:12.621Z,3.22
2022-10-07T05:58:36.428Z,3.28
2022-10-07T05:59:59.812Z,2.97
2022-10-07T06:01:23.979Z,2.75
2022-10-07T06:02:47.452Z,3.15
2022-10-07T06:04:10.837Z,3.20
2022-10-07T06:05:35.548Z,2.70
2022-10-07T06:06:57.899Z,3.35
2022-10-07T06:08:23.148Z,3.67
2022-10-07T06:10:03.850Z,4.25
2022-10-07T06:11:44.815Z,2.35
2022-10-07T06:13:07.752Z,3.17
2022-10-07T06:14:31.172Z,2.70
2022-10-07T06:15:54.520Z,2.95
2022-10-07T06:17:17.117Z,3.13
2022-10-07T06:18:40.815Z,3.33
2022-10-07T06:20:04.218Z,2.60
2022-10-07T06:21:29.013Z,2.60
2022-10-07T06:22:54.607Z,3.08
2022-10-07T06:24:18.119Z,3.28
2022-10-07T06:25:41.452Z,2.92
2022-10-07T06:27:03.897Z,3.03
2022-10-07T06:28:30.496Z,2.67
2022-10-07T06:29:53.948Z,2.65
2022-10-07T06:31:22.150Z,2.75
2022-10-07T06:32:45.599Z,3.38
2022-10-07T06:34:09.089Z,2.85
2022-10-07T06:35:32.444Z,3.03
2022-10-07T06:36:57.126Z,2.85
2022-10-07T06:38:20.436Z,3.53
2022-10-07T06:39:43.963Z,2.70
2022-10-07T06:41:07.581Z,2.90
2022-10-07T06:42:31.895Z,3.03
2022-10-07T06:43:57.826Z,3.00
2022-10-07T06:45:21.187Z,3.03
2022-10-07T06:46:44.714Z,3.33
2022-10-07T06:48:08.067Z,2.95
2022-10-07T06:49:31.252Z,2.58
2022-10-07T06:50:55.468Z,2.65
2022-10-07T06:52:20.150Z,2.85
2022-10-07T06:53:42.890Z,3.42
2022-10-07T06:55:07.762Z,2.63
2022-10-07T06:56:31.152Z,2.63
2022-10-07T06:57:54.501Z,3.38
2022-10-07T06:59:17.837Z,3.10
2022-10-07T07:00:41.575Z,2.90
2022-10-07T07:02:05.167Z,2.75
2022-10-07T07:03:29.024Z,3.60
2022-10-07T07:04:57.284Z,6.55
2022-10-07T07:06:21.260Z,3.45
2022-10-07T07:07:46.282Z,3.20
2022-10-07T07:09:09.982Z,2.47
2022-10-07T07:10:37.268Z,2.78
2022-10-07T07:12:00.656Z,3.40
2022-10-07T07:13:24.772Z,2.78
2022-10-07T07:14:48.157Z,3.22
2022-10-07T07:16:10.887Z,3.25
2022-10-07T07:17:34.276Z,2.88
2022-10-07T07:18:59.120Z,2.95
2022-10-07T07:20:22.459Z,2.80
2022-10-07T07:21:48.973Z,3.10
2022-10-07T07:23:15.427Z,2.65
2022-10-07T07:24:44.099Z,2.88
2022-10-07T07:26:06.942Z,2.70
2022-10-07T07:27:30.316Z,3.35
2022-10-07T07:28:52.928Z,2.80
2022-10-07T07:30:16.329Z,2.70
2022-10-07T07:31:40.065Z,2.63
2022-10-07T07:33:04.149Z,3.08
2022-10-07T07:34:27.960Z,3.00
2022-10-07T07:35:51.351Z,3.05
2022-10-07T07:37:14.689Z,3.42
2022-10-07T07:38:39.852Z,3.30
2022-10-07T07:40:03.200Z,2.58
2022-10-07T07:42:23.683Z,2.80
2022-10-07T07:43:50.470Z,2.63
2022-10-07T07:45:14.124Z,2.50
2022-10-07T07:46:50.679Z,2.80
2022-10-07T07:48:15.016Z,3.00
2022-10-07T07:49:38.387Z,2.88
2022-10-07T07:51:01.788Z,2.72
2022-10-07T07:52:25.585Z,2.95
2022-10-07T07:53:49.954Z,3.13
2022-10-07T07:55:13.320Z,2.92
2022-10-07T07:56:37.329Z,2.85
2022-10-07T07:58:00.685Z,3.17
2022-10-07T07:59:25.213Z,2.60
2022-10-07T08:00:59.510Z,2.70
2022-10-07T08:02:23.330Z,2.78
2022-10-07T08:03:48.103Z,3.05
2022-10-07T08:05:11.721Z,3.03
2022-10-07T08:06:35.513Z,4.38
2022-10-07T08:07:58.888Z,3.08
2022-10-07T08:09:24.069Z,2.95
2022-10-07T08:10:51.805Z,3.78
2022-10-07T08:12:15.846Z,5.88
2022-10-07T08:13:41.222Z,11.63
2022-10-07T08:15:04.982Z,4.00
2022-10-07T08:16:29.814Z,3.17
2022-10-07T08:17:53.750Z,3.20
2022-10-07T08:19:17.963Z,3.05
2022-10-07T08:20:41.299Z,3.60
2022-10-07T08:22:04.743Z,2.55
2022-10-07T08:23:29.252Z,2.78
2022-10-07T08:24:53.978Z,2.97
2022-10-07T08:26:17.373Z,6.50
2022-10-07T08:27:40.872Z,5.03
2022-10-07T08:29:04.567Z,3.67
2022-10-07T08:30:27.955Z,3.20
2022-10-07T08:31:51.474Z,3.83
2022-10-07T08:33:14.885Z,2.83
2022-10-07T08:34:38.293Z,2.50
2022-10-07T08:36:02.071Z,2.40
2022-10-07T08:37:25.387Z,2.55
2022-10-07T08:38:49.620Z,2.80
2022-10-07T08:40:17.488Z,2.70
2022-10-07T08:41:51.506Z,2.97
2022-10-07T08:43:15.117Z,4.20
2022-10-07T08:44:40.956Z,3.38
2022-10-07T08:46:05.333Z,2.40
2022-10-07T08:47:31.421Z,2.63
2022-10-07T08:48:59.862Z,3.00
2022-10-07T08:50:26.546Z,5.78
2022-10-07T08:51:50.637Z,3.30
2022-10-07T08:53:18.792Z,2.72
2022-10-07T08:54:42.182Z,3.67
2022-10-07T08:56:11.252Z,2.47
2022-10-07T08:57:50.282Z,2.60
2022-10-07T08:59:20.499Z,4.10
2022-10-07T09:00:50.331Z,2.75
2022-10-07T09:02:23.023Z,3.08
2022-10-07T09:03:52.086Z,2.03
2022-10-07T09:05:21.678Z,2.60
2022-10-07T09:06:50.448Z,1.95
2022-10-07T09:08:17.910Z,2.45
2022-10-07T09:09:44.072Z,2.42
2022-10-07T09:11:16.498Z,2.10
2022-10-07T09:12:48.169Z,2.40
2022-10-07T09:14:19.244Z,2.20
2022-10-07T09:15:46.198Z,2.33
2022-10-07T09:17:15.279Z,2.33
2022-10-07T09:18:40.578Z,2.53
2022-10-07T09:20:06.155Z,1.88
2022-10-07T09:21:34.425Z,2.30
2022-10-07T09:22:59.626Z,2.83
2022-10-07T09:24:25.813Z,2.40
2022-10-07T09:25:49.301Z,2.30
2022-10-07T09:27:17.256Z,2.13
2022-10-07T09:28:41.052Z,2.13
2022-10-07T09:30:04.861Z,2.47
2022-10-07T09:31:28.299Z,2.05
2022-10-07T09:32:55.112Z,2.00
2022-10-07T09:34:23.145Z,2.30
2022-10-07T09:35:57.408Z,2.45
2022-10-07T09:37:23.452Z,1.92
2022-10-07T09:38:48.567Z,1.52
2022-10-07T09:40:23.398Z,1.77
2022-10-07T09:41:46.797Z,1.55
2022-10-07T09:43:17.725Z,2.22
2022-10-07T09:44:41.156Z,1.58
2022-10-07T09:46:04.640Z,1.88
2022-10-07T09:47:30.537Z,1.70
2022-10-07T09:48:54.314Z,1.73
2022-10-07T09:50:32.835Z,1.95
2022-10-07T09:52:00.698Z,2.42
2022-10-07T09:53:25.997Z,2.08
2022-10-07T09:54:51.658Z,2.20
2022-10-07T09:56:34.114Z,1.75
2022-10-07T09:58:01.477Z,1.85
2022-10-07T09:59:27.598Z,2.10
2022-10-07T10:00:52.142Z,1.52
2022-10-07T10:02:20.375Z,1.38
2022-10-07T10:03:43.951Z,1.80
2022-10-07T10:05:19.064Z,1.85
2022-10-07T10:06:47.643Z,2.35
2022-10-07T10:08:24.265Z,1.67
2022-10-07T10:09:50.908Z,2.45
2022-10-07T10:11:28.184Z,1.45
2022-10-07T10:12:53.412Z,1.58
2022-10-07T10:14:35.963Z,2.33
2022-10-07T10:15:59.851Z,2.40
2022-10-07T10:17:30.294Z,2.15
2022-10-07T10:18:56.429Z,2.00
2022-10-07T10:20:35.941Z,1.65
2022-10-07T10:22:00.294Z,1.85
2022-10-07T10:23:26.886Z,1.60
2022-10-07T10:25:07.728Z,2.13
2022-10-07T10:26:57.007Z,2.00
2022-10-07T10:28:27.559Z,2.22
2022-10-07T10:29:57.375Z,1.80
2022-10-07T10:31:25.700Z,1.70
2022-10-07T10:33:17.475Z,1.88
2022-10-07T10:34:45.710Z,1.73
2022-10-07T10:36:14.972Z,2.05
2022-10-07T10:38:04.587Z,1.83
2022-10-07T10:39:40.674Z,1.73
2022-10-07T10:41:11.494Z,1.73
2022-10-07T10:42:40.924Z,1.48
2022-10-07T10:44:32.617Z,1.75
2022-10-07T10:46:13.676Z,1.67
2022-10-07T10:47:51.711Z,1.77
2022-10-07T10:49:25.371Z,1.88
2022-10-07T10:50:54.860Z,2.00
2022-10-07T10:52:29.400Z,2.25
2022-10-07T10:54:13.758Z,1.65
2022-10-07T10:56:17.247Z,1.75
2022-10-07T10:57:45.710Z,1.92
2022-10-07T10:59:27.500Z,1.60
2022-10-07T11:01:00.040Z,1.50
2022-10-07T11:02:39.208Z,1.98
2022-10-07T11:04:29.131Z,1.50
2022-10-07T11:05:53.952Z,1.70
2022-10-07T11:07:21.639Z,1.77
2022-10-07T11:08:47.247Z,1.42
2022-10-07T11:10:19.725Z,1.27
2022-10-07T11:11:43.696Z,1.50
2022-10-07T11:13:25.525Z,1.55
2022-10-07T11:14:56.992Z,1.48
2022-10-07T11:16:23.212Z,1.55
2022-10-07T11:17:48.444Z,1.25
2022-10-07T11:19:15.868Z,1.20
2022-10-07T11:20:44.912Z,1.30
2022-10-07T11:22:14.880Z,1.50
2022-10-07T11:23:45.592Z,1.88
2022-10-07T11:25:22.407Z,1.83
2022-10-07T11:26:48.065Z,2.00
2022-10-07T11:28:18.307Z,1.50
2022-10-07T11:29:48.267Z,1.63
2022-10-07T11:31:21.724Z,1.80
2022-10-07T11:32:50.433Z,1.90
2022-10-07T11:34:17.508Z,1.83
2022-10-07T11:35:48.435Z,1.20
2022-10-07T11:37:16.931Z,1.33
2022-10-07T11:38:40.404Z,1.65
2022-10-07T11:40:06.072Z,1.50
2022-10-07T11:41:32.366Z,2.08
2022-10-07T11:42:58.115Z,2.03
2022-10-07T11:44:26.642Z,1.90
2022-10-07T11:45:52.218Z,2.13
2022-10-07T11:47:18.264Z,1.95
2022-10-07T11:48:45.408Z,1.55
2022-10-07T11:50:11.589Z,1.98
2022-10-07T11:51:36.819Z,1.55
2022-10-07T11:53:06.912Z,2.03
2022-10-07T11:54:34.429Z,1.80
2022-10-07T11:56:00.588Z,2.40
2022-10-07T11:57:27.193Z,1.80
2022-10-07T11:58:59.131Z,2.35
2022-10-07T12:00:27.551Z,1.90
2022-10-07T12:01:52.546Z,2.38
2022-10-07T12:03:48.524Z,1.75
2022-10-07T12:05:45.364Z,1.67
2022-10-07T12:07:38.515Z,1.40
2022-10-07T12:09:40.432Z,2.20
2022-10-07T12:11:48.363Z,1.60
2022-10-07T12:13:37.515Z,1.60
2022-10-07T12:15:02.446Z,1.95
2022-10-07T12:16:56.075Z,1.25
2022-10-07T12:18:30.153Z,1.70
2022-10-07T12:20:29.431Z,1.88
2022-10-07T12:22:16.389Z,1.25
2022-10-07T12:23:48.714Z,1.85
2022-10-07T12:25:32.288Z,2.15
2022-10-07T12:26:57.218Z,1.67
2022-10-07T12:28:24.764Z,1.80
2022-10-07T12:29:58.636Z,2.53
2022-10-07T12:31:46.732Z,1.65
2022-10-07T12:33:16.957Z,1.50
2022-10-07T12:34:43.359Z,1.58
2022-10-07T12:36:26.140Z,2.13
2022-10-07T12:37:51.739Z,2.45
2022-10-07T12:39:35.533Z,1.70
2022-10-07T12:41:21.067Z,1.55
2022-10-07T12:42:51.938Z,1.73
2022-10-07T12:44:18.003Z,1.63
2022-10-07T12:45:43.448Z,1.98
2022-10-07T12:47:18.432Z,1.60
2022-10-07T12:48:46.690Z,1.85
2022-10-07T12:50:13.928Z,1.80
2022-10-07T12:51:40.193Z,1.70
2022-10-07T12:53:04.166Z,1.80
2022-10-07T12:54:32.173Z,1.38
2022-10-07T12:55:57.431Z,2.00
2022-10-07T12:57:23.344Z,1.60
2022-10-07T12:59:22.160Z,1.70
2022-10-07T13:00:55.200Z,1.27
2022-10-07T13:02:54.234Z,1.50
2022-10-07T13:04:47.865Z,1.40
2022-10-07T13:06:47.079Z,1.67
2022-10-07T13:09:02.653Z,1.50
2022-10-07T13:10:50.102Z,1.70
2022-10-07T13:12:28.686Z,1.50
2022-10-07T13:13:57.769Z,1.10
2022-10-07T13:15:31.422Z,0.75
2022-10-07T13:16:59.608Z,1.30
2022-10-07T13:18:29.395Z,1.50
2022-10-07T13:19:59.262Z,1.40
2022-10-07T13:21:25.147Z,1.40
2022-10-07T13:22:48.131Z,1.30
2022-10-07T13:24:16.657Z,1.20
2022-10-07T13:25:45.582Z,1.50
2022-10-07T13:27:09.780Z,1.58
2022-10-07T13:28:39.150Z,1.77
2022-10-07T13:30:04.034Z,1.30
2022-10-07T13:31:29.353Z,1.60
2022-10-07T13:32:52.009Z,1.30
2022-10-07T13:34:18.202Z,1.10
2022-10-07T13:35:41.809Z,1.50
2022-10-07T13:37:18.275Z,1.70
2022-10-07T13:38:41.653Z,1.50
2022-10-07T13:40:21.983Z,1.35
2022-10-07T13:41:47.660Z,1.45
2022-10-07T13:43:14.299Z,2.97
2022-10-07T13:44:39.886Z,1.85
2022-10-07T13:46:02.740Z,2.10
2022-10-07T13:47:28.036Z,3.00
2022-10-07T13:48:51.537Z,2.10
2022-10-07T13:50:19.620Z,1.63
2022-10-07T13:51:43.273Z,1.40
2022-10-07T13:53:06.667Z,1.92
2022-10-07T13:54:31.828Z,1.67
2022-10-07T13:56:18.708Z,1.60
2022-10-07T13:57:44.278Z,1.60
2022-10-07T13:59:09.753Z,1.58
2022-10-07T14:00:33.799Z,3.05
2022-10-07T14:01:59.081Z,1.40
2022-10-07T14:03:21.512Z,1.23
2022-10-07T14:04:59.613Z,1.48
2022-10-07T14:06:38.034Z,1.52
2022-10-07T14:08:13.566Z,1.50
2022-10-07T14:09:48.587Z,1.90
2022-10-07T14:11:20.655Z,1.33
2022-10-07T14:12:46.195Z,1.33
2022-10-07T14:14:18.619Z,1.60
2022-10-07T14:15:48.318Z,1.08
2022-10-07T14:17:18.210Z,1.35
2022-10-07T14:18:44.879Z,1.08
2022-10-07T14:20:19.076Z,1.40
2022-10-07T14:21:42.989Z,2.25
2022-10-07T14:23:08.159Z,1.42
2022-10-07T14:24:31.811Z,1.90
2022-10-07T14:25:57.032Z,1.20
2022-10-07T14:28:02.453Z,1.70
2022-10-07T14:29:37.775Z,1.60
2022-10-07T14:31:37.218Z,1.50
2022-10-07T14:33:20.476Z,1.17
2022-10-07T14:35:02.901Z,1.40
2022-10-07T14:36:26.603Z,1.30
2022-10-07T14:37:50.319Z,1.92
2022-10-07T14:39:24.195Z,1.30
2022-10-07T14:40:47.579Z,1.83
2022-10-07T14:42:13.175Z,1.42
2022-10-07T14:43:39.455Z,1.83
2022-10-07T14:45:05.028Z,1.67
2022-10-07T14:46:29.170Z,1.45
2022-10-07T14:47:52.566Z,1.27
2022-10-07T14:49:15.933Z,1.00
2022-10-07T14:50:40.302Z,1.40
2022-10-07T14:52:04.113Z,1.27
2022-10-07T14:53:27.495Z,1.45
2022-10-07T14:54:51.179Z,1.42
2022-10-07T14:56:16.410Z,1.15
2022-10-07T14:57:40.085Z,1.25
2022-10-07T14:59:04.902Z,1.60
2022-10-07T15:00:32.938Z,1.30
2022-10-07T15:02:00.764Z,1.50
2022-10-07T15:03:24.716Z,1.33
2022-10-07T15:04:49.342Z,1.40
2022-10-07T15:06:11.907Z,1.27
2022-10-07T15:07:35.443Z,1.70
2022-10-07T15:09:00.907Z,1.38
2022-10-07T15:10:26.646Z,1.10
2022-10-07T15:11:50.613Z,1.02
2022-10-07T15:13:14.635Z,1.50
2022-10-07T15:14:39.336Z,1.38
2022-10-07T15:16:03.261Z,1.65
2022-10-07T15:17:26.826Z,1.52
2022-10-07T15:18:53.024Z,1.05
2022-10-07T15:20:17.562Z,1.50
2022-10-07T15:21:41.026Z,1.38
2022-10-07T15:23:04.471Z,1.35
2022-10-07T15:24:29.144Z,1.42
2022-10-07T15:25:56.886Z,1.30
2022-10-07T15:27:20.284Z,1.67
2022-10-07T15:28:43.757Z,1.73
2022-10-07T15:30:09.565Z,1.88
2022-10-07T15:31:33.058Z,2.03
2022-10-07T15:32:57.571Z,1.40
2022-10-07T15:34:21.300Z,1.90
2022-10-07T15:35:44.512Z,1.80
2022-10-07T15:37:09.222Z,1.80
2022-10-07T15:38:33.183Z,1.83
2022-10-07T15:39:56.653Z,2.67
2022-10-07T15:41:30.633Z,1.90
2022-10-07T15:42:54.000Z,2.80
2022-10-07T15:44:19.313Z,2.20
2022-10-07T15:45:49.870Z,2.78
2022-10-07T15:47:13.763Z,1.80
2022-10-07T15:48:38.384Z,1.63
2022-10-07T15:50:01.828Z,1.85
2022-10-07T15:51:25.448Z,1.60
2022-10-07T15:52:49.001Z,1.98
2022-10-07T15:54:12.586Z,1.58
2022-10-07T15:55:35.907Z,1.65
2022-10-07T15:56:59.313Z,1.42
2022-10-07T15:58:23.530Z,1.70
2022-10-07T15:59:46.911Z,1.95
2022-10-07T16:01:12.435Z,1.63
2022-10-07T16:02:36.163Z,1.77
2022-10-07T16:03:59.285Z,1.70
2022-10-07T16:05:24.322Z,1.35
2022-10-07T16:06:51.343Z,1.48
2022-10-07T16:08:14.665Z,1.38
2022-10-07T16:09:38.003Z,1.50
2022-10-07T16:11:04.301Z,1.75
2022-10-07T16:12:27.623Z,1.75
2022-10-07T16:13:50.334Z,1.55
2022-10-07T16:15:13.689Z,1.70
2022-10-07T16:16:38.753Z,1.42
2022-10-07T16:18:04.659Z,1.65
2022-10-07T16:19:28.019Z,1.92
2022-10-07T16:20:50.368Z,1.88
2022-10-07T16:22:13.715Z,1.70
2022-10-07T16:23:38.874Z,2.10
2022-10-07T16:25:02.343Z,1.88
2022-10-07T16:26:29.335Z,2.08
2022-10-07T16:28:10.018Z,2.17
2022-10-07T16:29:51.148Z,1.90
2022-10-07T16:31:14.620Z,1.70
2022-10-07T16:32:39.416Z,2.72
2022-10-07T16:34:03.356Z,2.40
2022-10-07T16:35:26.876Z,3.03
2022-10-07T16:36:50.891Z,3.83
2022-10-07T16:38:14.231Z,4.50
2022-10-07T16:39:37.677Z,2.70
2022-10-07T16:41:02.203Z,2.55
2022-10-07T16:42:25.616Z,2.13
2022-10-07T16:43:48.769Z,1.90
2022-10-07T16:45:12.660Z,2.40
2022-10-07T16:46:36.363Z,2.10
2022-10-07T16:48:01.103Z,2.83
2022-10-07T16:49:25.824Z,1.95
2022-10-07T16:50:49.761Z,2.08
2022-10-07T16:52:13.952Z,2.00
2022-10-07T16:53:36.340Z,2.03
2022-10-07T16:55:00.208Z,2.30
2022-10-07T16:56:23.203Z,2.38
2022-10-07T16:57:48.861Z,2.47
2022-10-07T16:59:16.463Z,1.98
2022-10-07T17:00:43.102Z,2.42
2022-10-07T17:02:06.490Z,2.47
2022-10-07T17:03:31.342Z,2.97
2022-10-07T17:04:54.761Z,2.53
2022-10-07T17:06:19.587Z,2.85
2022-10-07T17:07:43.318Z,2.33
2022-10-07T17:09:06.975Z,2.92
2022-10-07T17:10:30.352Z,3.70
2022-10-07T17:11:53.784Z,3.63
2022-10-07T17:13:19.692Z,3.72
2022-10-07T17:14:43.268Z,4.22
2022-10-07T17:16:06.235Z,4.32
2022-10-07T17:17:30.311Z,4.57
2022-10-07T17:18:54.146Z,3.80
2022-10-07T17:20:17.603Z,4.38
2022-10-07T17:21:42.082Z,4.25
2022-10-07T17:23:05.440Z,4.38
2022-10-07T17:24:29.980Z,4.15
2022-10-07T17:25:53.044Z,3.55
2022-10-07T17:27:16.831Z,3.67
2022-10-07T17:28:39.266Z,3.78
2022-10-07T17:30:02.738Z,4.25
2022-10-07T17:31:26.685Z,4.53
2022-10-07T17:32:51.400Z,4.63
2022-10-07T17:34:15.985Z,4.93
2022-10-07T17:35:40.427Z,4.68
2022-10-07T17:37:03.788Z,4.82
2022-10-07T17:38:35.161Z,4.68
2022-10-07T17:39:58.496Z,5.00
2022-10-07T17:41:23.202Z,5.05
2022-10-07T17:42:46.567Z,4.70
2022-10-07T17:44:12.423Z,5.18
2022-10-07T17:45:36.716Z,5.22
2022-10-07T17:47:03.453Z,5.15
2022-10-07T17:48:25.923Z,4.93
2022-10-07T17:49:50.612Z,5.05
2022-10-07T17:51:15.136Z,5.28
2022-10-07T17:52:38.504Z,4.38
2022-10-07T17:54:03.215Z,5.03
2022-10-07T17:55:26.592Z,4.55
2022-10-07T17:56:49.969Z,5.07
2022-10-07T17:58:13.382Z,5.68
2022-10-07T17:59:38.737Z,4.90
2022-10-07T18:01:06.359Z,5.38
2022-10-07T18:02:29.768Z,4.47
2022-10-07T18:03:54.891Z,4.50
2022-10-07T18:05:20.600Z,4.43
2022-10-07T18:06:43.324Z,4.75
2022-10-07T18:08:07.216Z,4.25
2022-10-07T18:09:30.566Z,4.15
2022-10-07T18:10:52.976Z,3.83
2022-10-07T18:12:45.340Z,4.18
2022-10-07T18:14:26.722Z,3.17
2022-10-07T18:16:00.279Z,4.50
2022-10-07T18:17:24.730Z,3.50
2022-10-07T18:18:49.159Z,5.07
2022-10-07T18:20:15.144Z,3.90
2022-10-07T18:21:40.237Z,3.83
2022-10-07T18:23:03.626Z,3.22
2022-10-07T18:24:28.757Z,3.75
2022-10-07T18:25:52.247Z,3.90
2022-10-07T18:27:14.672Z,3.85
2022-10-07T18:28:39.185Z,3.78
2022-10-07T18:30:03.357Z,3.85
2022-10-07T18:31:27.293Z,3.65
2022-10-07T18:32:49.718Z,3.67
2022-10-07T18:34:13.593Z,3.50
2022-10-07T18:35:36.945Z,3.42
2022-10-07T18:37:01.725Z,3.25
2022-10-07T18:38:25.176Z,3.65
2022-10-07T18:39:48.487Z,3.80
2022-10-07T18:41:14.155Z,3.55
2022-10-07T18:42:39.148Z,3.75
2022-10-07T18:44:01.537Z,3.75
2022-10-07T18:45:24.946Z,3.35
2022-10-07T18:46:48.478Z,3.92
2022-10-07T18:48:11.793Z,3.55
2022-10-07T18:49:35.188Z,3.55
2022-10-07T18:50:57.593Z,3.10
2022-10-07T18:52:22.433Z,3.83
2022-10-07T18:53:47.567Z,3.80
2022-10-07T18:55:10.176Z,3.85
2022-10-07T18:56:37.043Z,3.67
2022-10-07T18:58:04.170Z,2.92
2022-10-07T18:59:27.680Z,3.90
2022-10-07T19:00:50.186Z,3.55
2022-10-07T19:02:13.665Z,3.65
2022-10-07T19:03:37.231Z,3.92
2022-10-07T19:05:00.595Z,3.88
2022-10-07T19:06:24.263Z,3.58
2022-10-07T19:07:49.310Z,3.53
2022-10-07T19:09:14.855Z,3.70
2022-10-07T19:10:42.221Z,3.67
2022-10-07T19:12:26.348Z,2.88
2022-10-07T19:13:50.987Z,3.88
2022-10-07T19:15:14.537Z,4.03
2022-10-07T19:16:39.527Z,4.80
2022-10-07T19:18:03.057Z,3.60
2022-10-07T19:19:26.624Z,3.53
2022-10-07T19:20:58.000Z,3.75